Time;durP1;ratioP1;P1;durP2;ratioP2;P2;SDS_P1;SDS_P2;PMS_P1;PMS_P2;Temp;Humidity;BMP_temperature;BMP_pressure;BME280_temperature;BME280_humidity;BME280_pressure;Samples;Min_cycle;Max_cycle;Signal;HPM_P1;HPM_P2
2021/07/22 00:00:09;;;;;;;15.95;10.20;;;;;;;14.38;100.00;96267.03;1018061;29;20027;-70
2021/07/22 00:00:40;;;;;;;17.08;10.13;;;;;;;14.41;100.00;96275.44;1018792;28;20031;-73
2021/07/22 00:01:10;;;;;;;16.23;10.68;;;;;;;14.39;100.00;96270.44;1022047;29;20031;-70
2021/07/22 00:01:41;;;;;;;16.25;10.27;;;;;;;14.39;100.00;96275.72;1022113;28;20031;-70
2021/07/22 00:02:11;;;;;;;14.15;9.40;;;;;;;14.37;100.00;96277.84;1021933;28;20027;-69
2021/07/22 00:02:42;;;;;;;17.70;10.50;;;;;;;14.31;100.00;96269.16;1014421;29;20029;-69
2021/07/22 00:03:12;;;;;;;14.65;10.40;;;;;;;14.33;100.00;96261.75;1014264;29;20031;-72
2021/07/22 00:03:43;;;;;;;15.88;10.32;;;;;;;14.17;100.00;96249.69;1009874;29;20053;-69
2021/07/22 00:04:16;;;;;;;20.17;10.90;;;;;;;14.31;100.00;96269.16;1008231;29;20025;-68
2021/07/22 00:04:46;;;;;;;13.75;10.10;;;;;;;14.22;100.00;96265.53;1014504;29;20024;-71
2021/07/22 00:05:17;;;;;;;14.60;10.30;;;;;;;14.24;100.00;96268.66;1019227;28;20114;-70
2021/07/22 00:05:47;;;;;;;14.40;10.25;;;;;;;14.25;100.00;96280.81;1022346;29;20461;-70
2021/07/22 00:06:18;;;;;;;15.05;10.45;;;;;;;14.25;100.00;96272.91;1018431;29;20031;-69
2021/07/22 00:06:48;;;;;;;14.90;9.88;;;;;;;14.26;100.00;96274.47;1018418;29;20024;-72
2021/07/22 00:07:19;;;;;;;17.73;9.95;;;;;;;14.23;100.00;96269.72;1020163;29;20059;-69
2021/07/22 00:07:49;;;;;;;14.48;10.20;;;;;;;14.23;100.00;96272.38;1014050;29;20028;-70
2021/07/22 00:08:20;;;;;;;18.35;9.93;;;;;;;14.22;100.00;96281.38;1018249;29;20038;-70
2021/07/22 00:08:50;;;;;;;17.45;10.10;;;;;;;14.20;100.00;96274.78;1014034;29;20047;-70
2021/07/22 00:09:20;;;;;;;16.27;9.68;;;;;;;14.19;100.00;96273.19;1018719;28;20024;-70
2021/07/22 00:09:51;;;;;;;18.63;11.30;;;;;;;14.17;100.00;96276.09;1026398;28;20030;-69
2021/07/22 00:10:21;;;;;;;19.23;10.80;;;;;;;14.11;100.00;96263.97;1025538;28;20023;-71
2021/07/22 00:10:52;;;;;;;20.20;10.30;;;;;;;14.00;100.00;96244.00;1030222;28;20022;-71
2021/07/22 00:11:25;;;;;;;16.98;10.30;;;;;;;14.10;100.00;96263.19;1023766;28;20047;-70
2021/07/22 00:11:56;;;;;;;19.35;10.45;;;;;;;14.09;100.00;96272.19;1025762;28;20014;-71
2021/07/22 00:12:26;;;;;;;16.02;9.40;;;;;;;14.10;100.00;96275.59;1029826;28;20018;-71
2021/07/22 00:12:56;;;;;;;19.40;10.70;;;;;;;14.07;100.00;96276.16;1018499;29;20015;-71
2021/07/22 00:13:27;;;;;;;16.25;9.75;;;;;;;14.00;100.00;96268.53;1018518;29;20032;-72
2021/07/22 00:14:00;;;;;;;18.20;10.00;;;;;;;14.07;100.00;96276.16;1014555;29;20139;-71
2021/07/22 00:14:31;;;;;;;14.18;9.43;;;;;;;14.03;100.00;96278.53;1015494;28;20264;-71
2021/07/22 00:15:09;;;;;;;15.07;10.15;;;;;;;13.95;100.00;96270.38;1026486;28;20038;-72
2021/07/22 00:15:39;;;;;;;17.83;10.27;;;;;;;13.93;100.00;96260.13;1023451;28;20811;-72
2021/07/22 00:16:17;;;;;;;18.75;10.60;;;;;;;14.00;100.00;96276.44;1014425;29;20060;-71
2021/07/22 00:16:47;;;;;;;14.55;9.95;;;;;;;13.99;100.00;96282.00;1018686;29;20033;-71
2021/07/22 00:17:18;;;;;;;22.20;11.35;;;;;;;13.98;100.00;96275.13;1018361;29;20769;-73
2021/07/22 00:17:48;;;;;;;20.17;10.73;;;;;;;13.97;100.00;96274.34;1021498;28;20783;-71
2021/07/22 00:18:19;;;;;;;23.67;10.27;;;;;;;14.00;100.00;96278.28;1030880;28;20019;-72
2021/07/22 00:18:49;;;;;;;17.02;10.85;;;;;;;13.89;100.00;96267.78;1034355;28;20386;-72
2021/07/22 00:19:20;;;;;;;16.77;10.25;;;;;;;13.95;100.00;96271.19;1026489;28;20492;-71
2021/07/22 00:19:50;;;;;;;20.83;11.35;;;;;;;13.93;100.00;96280.44;1022326;29;20477;-71
2021/07/22 00:20:20;;;;;;;17.92;10.45;;;;;;;13.90;100.00;96279.91;1018623;29;20143;-71
2021/07/22 00:20:51;;;;;;;14.77;10.68;;;;;;;13.90;100.00;96277.25;1022288;28;20031;-72
2021/07/22 00:21:22;;;;;;;15.38;10.60;;;;;;;13.87;100.00;96277.03;1026463;28;20113;-71
2021/07/22 00:21:53;;;;;;;15.65;10.80;;;;;;;13.89;100.00;96282.81;1021648;29;20023;-70
2021/07/22 00:22:23;;;;;;;17.40;10.82;;;;;;;13.91;100.00;96278.06;1022342;28;20547;-71
2021/07/22 00:22:53;;;;;;;16.98;11.48;;;;;;;13.91;100.00;96280.69;1018108;29;20081;-71
2021/07/22 00:23:27;;;;;;;20.30;10.52;;;;;;;13.92;100.00;96271.75;1013541;29;20036;-71
2021/07/22 00:24:01;;;;;;;16.20;10.70;;;;;;;13.84;100.00;96265.16;1014565;29;20048;-71
2021/07/22 00:24:31;;;;;;;19.88;11.20;;;;;;;13.89;100.00;96277.56;1024570;28;20729;-71
2021/07/22 00:25:05;;;;;;;19.08;11.68;;;;;;;13.90;100.00;96276.47;1026971;28;20290;-71
2021/07/22 00:25:36;;;;;;;17.08;11.15;;;;;;;13.87;100.00;96279.66;1031213;28;20166;-71
2021/07/22 00:26:06;;;;;;;14.57;10.27;;;;;;;13.87;100.00;96280.44;1020141;28;20328;-71
2021/07/22 00:26:37;;;;;;;17.85;11.55;;;;;;;13.86;100.00;96272.81;1023202;28;20027;-72
2021/07/22 00:27:08;;;;;;;20.13;11.75;;;;;;;13.88;100.00;96275.94;1022629;29;20012;-72
2021/07/22 00:27:38;;;;;;;21.77;11.55;;;;;;;13.86;100.00;96270.97;1020477;28;20546;-72
2021/07/22 00:28:11;;;;;;;17.17;11.55;;;;;;;13.81;100.00;96265.69;1030625;28;20018;-71
2021/07/22 00:28:42;;;;;;;19.50;11.15;;;;;;;13.87;100.00;96275.16;1021964;28;20024;-71
2021/07/22 00:29:12;;;;;;;16.88;10.95;;;;;;;13.85;100.00;96272.03;1017958;29;20027;-72
2021/07/22 00:29:43;;;;;;;16.95;11.40;;;;;;;13.82;100.00;96264.66;1018760;29;20028;-72
2021/07/22 00:30:14;;;;;;;17.95;11.25;;;;;;;13.87;100.00;96272.53;1020076;29;20054;-72
2021/07/22 00:30:48;;;;;;;19.98;10.88;;;;;;;13.84;100.00;96267.78;1020163;28;20023;-71
2021/07/22 00:31:18;;;;;;;20.10;12.27;;;;;;;13.83;100.00;96268.06;1026412;28;20026;-71
2021/07/22 00:31:49;;;;;;;20.20;11.55;;;;;;;13.80;100.00;96277.31;1026737;28;20030;-71
2021/07/22 00:32:20;;;;;;;25.00;12.45;;;;;;;13.82;100.00;96267.28;1030551;28;20025;-72
2021/07/22 00:32:50;;;;;;;21.35;10.93;;;;;;;13.85;100.00;96271.25;1032891;28;20038;-72
2021/07/22 00:33:23;;;;;;;17.17;11.10;;;;;;;13.83;100.00;96268.84;1034794;28;20026;-71
2021/07/22 00:33:56;;;;;;;18.85;12.20;;;;;;;13.86;100.00;96273.59;1027284;28;20118;-71
2021/07/22 00:34:27;;;;;;;21.13;11.65;;;;;;;13.84;100.00;96270.44;1026491;28;20625;-72
2021/07/22 00:34:57;;;;;;;15.95;10.70;;;;;;;13.84;100.00;96273.06;1018514;29;20425;-72
2021/07/22 00:35:28;;;;;;;19.10;11.98;;;;;;;13.81;100.00;96267.53;1018994;29;20475;-71
2021/07/22 00:35:59;;;;;;;15.63;9.88;;;;;;;13.81;100.00;96270.97;1021945;29;20021;-72
2021/07/22 00:36:29;;;;;;;19.50;11.35;;;;;;;13.80;100.00;96271.25;1024954;28;20031;-73
2021/07/22 00:37:00;;;;;;;17.42;11.45;;;;;;;13.79;100.00;96262.53;1026176;29;20118;-72
2021/07/22 00:37:30;;;;;;;20.08;11.60;;;;;;;13.78;100.00;96270.72;1018148;29;20053;-73
2021/07/22 00:38:01;;;;;;;21.17;11.73;;;;;;;13.76;100.00;96263.09;1021778;29;20122;-73
2021/07/22 00:38:31;;;;;;;17.77;11.23;;;;;;;13.76;100.00;96270.22;1022168;29;20024;-73
2021/07/22 00:39:02;;;;;;;17.98;11.77;;;;;;;13.70;100.00;96258.88;1025766;28;20038;-73
2021/07/22 00:39:36;;;;;;;15.70;11.63;;;;;;;13.75;100.00;96266.78;1027108;28;20023;-72
2021/07/22 00:40:07;;;;;;;17.98;11.80;;;;;;;13.75;100.00;96271.25;1022130;29;20031;-72
2021/07/22 00:40:49;;;;;;;16.67;11.25;;;;;;;13.75;100.00;96263.34;1025114;28;20075;-73
2021/07/22 00:41:20;;;;;;;19.02;11.60;;;;;;;13.74;100.00;96269.69;1031700;28;20031;-73
2021/07/22 00:41:50;;;;;;;18.52;11.65;;;;;;;13.73;100.00;96268.09;1029708;28;20262;-72
2021/07/22 00:42:21;;;;;;;21.05;11.57;;;;;;;13.71;100.00;96267.56;1029735;28;20019;-72
2021/07/22 00:42:57;;;;;;;16.48;10.43;;;;;;;13.70;100.00;96268.66;1025572;28;20038;-71
2021/07/22 00:43:28;;;;;;;19.77;12.32;;;;;;;13.73;100.00;96276.03;1021770;29;20028;-71
2021/07/22 00:44:01;;;;;;;17.90;11.88;;;;;;;13.71;100.00;96273.63;1022100;29;20028;-72
2021/07/22 00:44:31;;;;;;;19.73;11.40;;;;;;;13.72;100.00;96269.97;1024100;28;20088;-71
2021/07/22 00:45:02;;;;;;;17.65;11.98;;;;;;;13.71;100.00;96268.38;1030505;28;20273;-71
2021/07/22 00:45:32;;;;;;;16.23;11.73;;;;;;;13.61;100.00;96263.13;1034488;28;20109;-71
2021/07/22 00:46:06;;;;;;;17.73;12.15;;;;;;;13.69;100.00;96270.50;1029873;28;20018;-73
2021/07/22 00:46:36;;;;;;;17.05;11.48;;;;;;;13.69;100.00;96267.84;1025923;29;20106;-71
2021/07/22 00:47:07;;;;;;;18.75;11.35;;;;;;;13.65;100.00;96267.59;1025473;29;20258;-71
2021/07/22 00:47:37;;;;;;;18.45;12.93;;;;;;;13.69;100.00;96267.84;1025794;28;20023;-71
2021/07/22 00:48:10;;;;;;;19.98;11.60;;;;;;;13.70;100.00;96263.38;1031916;28;20026;-71
2021/07/22 00:48:41;;;;;;;15.80;11.40;;;;;;;13.69;100.00;96273.13;1029246;28;20027;-71
2021/07/22 00:49:12;;;;;;;16.63;11.15;;;;;;;13.66;100.00;96273.66;1022187;28;20032;-70
2021/07/22 00:49:44;;;;;;;19.63;12.38;;;;;;;13.68;100.00;96258.34;1028638;28;20042;-71
2021/07/22 00:50:15;;;;;;;18.88;12.32;;;;;;;13.68;100.00;96266.25;1025367;28;20075;-71
2021/07/22 00:50:45;;;;;;;17.98;11.95;;;;;;;13.67;100.00;96270.75;1025527;28;20289;-71
2021/07/22 00:51:16;;;;;;;20.63;12.85;;;;;;;13.60;100.00;96261.56;1028144;28;20031;-70
2021/07/22 00:51:46;;;;;;;19.13;12.30;;;;;;;13.66;100.00;96263.13;1030079;28;20094;-70
2021/07/22 00:52:17;;;;;;;21.75;12.50;;;;;;;13.65;100.00;96261.56;1031019;28;20018;-70
2021/07/22 00:52:47;;;;;;;21.90;12.32;;;;;;;13.66;100.00;96268.41;1034794;28;20052;-70
2021/07/22 00:53:18;;;;;;;22.33;12.65;;;;;;;13.67;100.00;96264.69;1031220;28;20041;-70
2021/07/22 00:53:48;;;;;;;19.27;13.35;;;;;;;13.64;100.00;96259.94;1030919;28;20129;-70
2021/07/22 00:54:20;;;;;;;20.65;12.77;;;;;;;13.64;100.00;96262.59;1030740;28;20026;-70
2021/07/22 00:54:51;;;;;;;21.60;12.68;;;;;;;13.65;100.00;96267.59;1030491;28;20034;-70
2021/07/22 00:55:26;;;;;;;19.80;11.75;;;;;;;13.65;100.00;96272.88;1022990;28;20274;-71
2021/07/22 00:55:56;;;;;;;22.85;12.73;;;;;;;13.59;100.00;96254.72;1022555;29;20023;-71
2021/07/22 00:56:27;;;;;;;21.48;12.30;;;;;;;13.65;100.00;96266.81;1018780;29;20020;-71
2021/07/22 00:56:57;;;;;;;23.60;12.43;;;;;;;13.62;100.00;96262.09;1015524;29;20028;-69
2021/07/22 00:57:29;;;;;;;19.55;12.90;;;;;;;13.64;100.00;96259.94;1019031;29;20541;-70
2021/07/22 00:58:00;;;;;;;23.73;12.77;;;;;;;13.64;100.00;96263.38;1019111;29;20102;-71
2021/07/22 00:58:30;;;;;;;20.38;12.85;;;;;;;13.68;100.00;96266.25;1019004;29;20313;-70
2021/07/22 00:59:01;;;;;;;20.65;12.88;;;;;;;13.58;100.00;96248.66;1018849;29;20055;-70
2021/07/22 00:59:32;;;;;;;21.08;12.55;;;;;;;13.66;100.00;96263.13;1022610;29;20026;-70
2021/07/22 01:00:02;;;;;;;18.35;11.77;;;;;;;13.60;100.00;96258.91;1022471;28;20027;-71
2021/07/22 01:00:33;;;;;;;22.20;12.77;;;;;;;13.67;100.00;96267.31;1023002;28;20035;-70
2021/07/22 01:01:03;;;;;;;18.40;12.40;;;;;;;13.68;100.00;96267.06;1019057;28;20460;-69
2021/07/22 01:01:34;;;;;;;19.73;12.80;;;;;;;13.71;100.00;96260.44;1027682;28;20031;-70
2021/07/22 01:02:05;;;;;;;23.63;13.07;;;;;;;13.66;100.00;96252.56;1030266;28;20042;-71
2021/07/22 01:02:35;;;;;;;17.25;12.30;;;;;;;13.72;100.00;96258.63;1030503;28;20403;-70
2021/07/22 01:03:06;;;;;;;20.95;13.07;;;;;;;13.64;100.00;96244.91;1031103;28;20464;-69
2021/07/22 01:03:38;;;;;;;19.05;12.48;;;;;;;13.70;100.00;96256.25;1018643;29;20036;-70
2021/07/22 01:04:09;;;;;;;20.58;12.90;;;;;;;13.72;100.00;96266.53;1019097;29;20039;-69
2021/07/22 01:04:39;;;;;;;23.98;12.65;;;;;;;13.70;100.00;96260.72;1022845;29;20317;-70
2021/07/22 01:05:10;;;;;;;18.55;11.50;;;;;;;13.73;100.00;96258.34;1028878;28;20035;-69
2021/07/22 01:05:40;;;;;;;21.27;12.85;;;;;;;13.74;100.00;96267.81;1034905;28;20030;-71
2021/07/22 01:06:11;;;;;;;21.60;12.35;;;;;;;13.74;100.00;96261.75;1034738;28;20037;-70
2021/07/22 01:06:44;;;;;;;19.75;12.52;;;;;;;13.72;100.00;96262.06;1032867;28;20048;-70
2021/07/22 01:07:14;;;;;;;20.38;13.00;;;;;;;13.72;100.00;96262.06;1030493;28;20098;-72
2021/07/22 01:07:45;;;;;;;23.17;13.38;;;;;;;13.71;100.00;96260.44;1022924;28;20270;-70
2021/07/22 01:08:15;;;;;;;18.17;12.45;;;;;;;13.71;100.00;96260.44;1022710;29;20063;-69
2021/07/22 01:08:46;;;;;;;18.55;12.95;;;;;;;13.71;100.00;96260.44;1020372;29;20039;-70
2021/07/22 01:09:19;;;;;;;24.77;14.13;;;;;;;13.70;100.00;96258.88;1022677;29;20024;-68
2021/07/22 01:09:50;;;;;;;18.17;12.60;;;;;;;13.68;100.00;96255.72;1024407;29;20500;-71
2021/07/22 01:10:20;;;;;;;22.00;13.38;;;;;;;13.71;100.00;96257.81;1023605;28;20038;-70
2021/07/22 01:10:51;;;;;;;20.00;12.30;;;;;;;13.71;100.00;96260.44;1033774;28;20045;-73
2021/07/22 01:11:21;;;;;;;20.00;12.60;;;;;;;13.66;100.00;96256.00;1034261;28;20038;-70
2021/07/22 01:11:52;;;;;;;22.13;12.68;;;;;;;13.71;100.00;96259.66;1025855;29;20031;-73
2021/07/22 01:12:22;;;;;;;21.65;13.38;;;;;;;13.70;100.00;96261.50;1022587;28;20096;-70
2021/07/22 01:12:53;;;;;;;20.90;12.88;;;;;;;13.67;100.00;96254.13;1029528;28;20035;-70
2021/07/22 01:13:23;;;;;;;22.67;13.23;;;;;;;13.66;100.00;96255.22;1030653;28;20057;-69
2021/07/22 01:13:54;;;;;;;22.55;13.45;;;;;;;13.67;100.00;96262.06;1034298;28;20030;-70
2021/07/22 01:14:24;;;;;;;19.05;12.13;;;;;;;13.66;100.00;96257.84;1027983;28;20035;-70
2021/07/22 01:14:54;;;;;;;18.10;11.90;;;;;;;13.55;100.00;96238.63;1027702;28;20456;-70
2021/07/22 01:15:25;;;;;;;19.65;12.75;;;;;;;13.63;100.00;96253.09;1023823;29;20031;-70
2021/07/22 01:15:55;;;;;;;18.05;12.68;;;;;;;13.66;100.00;96255.22;1019042;29;20027;-72
2021/07/22 01:16:26;;;;;;;18.88;11.70;;;;;;;13.66;100.00;96258.63;1023584;28;20384;-70
2021/07/22 01:16:56;;;;;;;17.35;12.02;;;;;;;13.64;100.00;96252.81;1023337;29;20297;-70
2021/07/22 01:17:42;;;;;;;19.80;12.88;;;;;;;13.64;100.00;96249.41;1023743;28;20099;-70
2021/07/22 01:18:12;;;;;;;16.67;11.23;;;;;;;13.61;100.00;96256.00;1027688;28;20019;-70
2021/07/22 01:18:42;;;;;;;25.33;12.57;;;;;;;13.59;100.00;96246.78;1031309;28;20278;-70
2021/07/22 01:19:13;;;;;;;18.45;11.90;;;;;;;13.61;100.00;96249.94;1027294;28;20124;-70
2021/07/22 01:19:43;;;;;;;19.27;12.50;;;;;;;13.60;100.00;96253.63;1027680;28;20576;-70
2021/07/22 01:20:18;;;;;;;17.98;12.10;;;;;;;13.59;100.00;96252.06;1022999;28;20032;-71
2021/07/22 01:20:48;;;;;;;18.67;12.35;;;;;;;13.56;100.00;96244.69;1023980;28;20046;-73
2021/07/22 01:21:19;;;;;;;18.33;12.18;;;;;;;13.55;100.00;96254.47;1027450;28;20302;-70
2021/07/22 01:21:49;;;;;;;21.02;12.75;;;;;;;13.56;100.00;96252.59;1026172;28;20035;-69
2021/07/22 01:22:20;;;;;;;18.63;12.60;;;;;;;13.54;100.00;96244.94;1015661;29;20032;-70
2021/07/22 01:22:52;;;;;;;19.08;12.80;;;;;;;13.55;100.00;96251.03;1019602;29;20028;-70
2021/07/22 01:23:22;;;;;;;23.13;13.30;;;;;;;13.57;100.00;96251.53;1019720;29;20036;-70
2021/07/22 01:23:52;;;;;;;20.77;13.23;;;;;;;13.60;100.00;96249.16;1021993;28;20311;-70
2021/07/22 01:24:23;;;;;;;19.00;13.57;;;;;;;13.60;100.00;96254.44;1022766;28;20026;-70
2021/07/22 01:24:53;;;;;;;21.58;12.82;;;;;;;13.52;100.00;96241.03;1019094;29;20035;-70
2021/07/22 01:25:24;;;;;;;21.40;13.15;;;;;;;13.53;100.00;96250.50;1018996;29;20039;-70
2021/07/22 01:25:55;;;;;;;16.70;11.82;;;;;;;13.56;100.00;96252.59;1022756;28;20535;-70
2021/07/22 01:26:25;;;;;;;19.95;12.75;;;;;;;13.58;100.00;96255.75;1024068;28;20034;-69
2021/07/22 01:26:56;;;;;;;19.15;11.88;;;;;;;13.57;100.00;96248.91;1028368;28;20086;-70
2021/07/22 01:27:26;;;;;;;19.25;11.95;;;;;;;13.56;100.00;96252.59;1031224;28;20412;-70
2021/07/22 01:27:56;;;;;;;21.23;13.25;;;;;;;13.57;100.00;96248.91;1032308;28;20435;-70
2021/07/22 01:28:27;;;;;;;22.65;12.75;;;;;;;13.57;100.00;96251.53;1020807;29;20380;-70
2021/07/22 01:28:58;;;;;;;19.67;12.35;;;;;;;13.54;100.00;96250.22;1019540;29;20406;-70
2021/07/22 01:29:28;;;;;;;20.10;12.82;;;;;;;13.54;100.00;96258.13;1019351;29;20650;-70
2021/07/22 01:29:59;;;;;;;19.27;12.48;;;;;;;13.24;100.00;96206.28;1023127;29;20023;-69
2021/07/22 01:30:29;;;;;;;21.73;13.18;;;;;;;13.53;100.00;96250.50;1022540;29;20114;-70
2021/07/22 01:31:00;;;;;;;20.88;13.50;;;;;;;13.54;100.00;96250.22;1015681;29;20461;-69
2021/07/22 01:31:30;;;;;;;21.48;13.32;;;;;;;13.47;100.00;96239.16;1019540;28;20031;-69
2021/07/22 01:32:05;;;;;;;21.92;12.40;;;;;;;13.54;100.00;96250.22;1022924;29;20046;-70
2021/07/22 01:32:36;;;;;;;24.48;13.30;;;;;;;13.53;100.00;96245.22;1012319;29;20515;-70
2021/07/22 01:33:06;;;;;;;18.55;12.70;;;;;;;13.51;100.00;96250.75;1015757;29;20268;-67
2021/07/22 01:33:36;;;;;;;18.17;13.27;;;;;;;13.50;100.00;96251.03;1012775;29;20028;-70
2021/07/22 01:34:07;;;;;;;17.20;11.60;;;;;;;13.50;100.00;96248.41;1021896;28;20393;-70
2021/07/22 01:34:40;;;;;;;17.60;12.05;;;;;;;13.47;100.00;96254.19;1031560;28;20396;-70
2021/07/22 01:35:14;;;;;;;18.55;11.82;;;;;;;13.44;100.00;96240.50;1027185;28;20479;-70
2021/07/22 01:35:47;;;;;;;18.85;11.98;;;;;;;13.47;100.00;96248.94;1023263;28;20966;-70
2021/07/22 01:36:22;;;;;;;15.38;11.05;;;;;;;13.44;100.00;96245.75;1023426;29;20046;-71
2021/07/22 01:36:53;;;;;;;16.80;12.38;;;;;;;13.37;100.00;96234.72;1024463;28;20290;-70
2021/07/22 01:37:23;;;;;;;22.08;11.82;;;;;;;13.46;100.00;96244.72;1030232;28;20265;-71
2021/07/22 01:37:53;;;;;;;17.45;12.40;;;;;;;13.41;100.00;96241.06;1035989;28;20026;-70
2021/07/22 01:38:24;;;;;;;19.30;11.73;;;;;;;13.45;100.00;96243.94;1031846;28;20030;-69
2021/07/22 01:38:57;;;;;;;19.70;11.52;;;;;;;13.48;100.00;96250.50;1028205;28;20027;-70
2021/07/22 01:39:29;;;;;;;20.75;12.27;;;;;;;13.47;100.00;96243.66;1032229;28;20034;-70
2021/07/22 01:39:59;;;;;;;19.25;12.40;;;;;;;13.46;100.00;96242.09;1031781;28;20272;-69
2021/07/22 01:40:30;;;;;;;20.70;12.52;;;;;;;13.44;100.00;96244.97;1028242;28;20353;-70
2021/07/22 01:41:03;;;;;;;17.20;11.23;;;;;;;13.37;100.00;96237.34;1031493;28;20038;-69
2021/07/22 01:41:35;;;;;;;22.58;11.77;;;;;;;13.42;100.00;96247.91;1027126;28;20026;-70
2021/07/22 01:42:06;;;;;;;19.15;11.30;;;;;;;13.43;100.00;96243.41;1029950;28;20320;-69
2021/07/22 01:42:37;;;;;;;15.48;10.57;;;;;;;13.43;100.00;96243.41;1023499;29;20565;-70
2021/07/22 01:43:07;;;;;;;18.05;12.10;;;;;;;13.41;100.00;96238.41;1023066;28;20269;-70
2021/07/22 01:43:38;;;;;;;19.45;12.02;;;;;;;13.44;100.00;96239.69;1020426;28;20035;-70
2021/07/22 01:44:08;;;;;;;22.10;11.88;;;;;;;13.42;100.00;96236.56;1019888;28;20031;-70
2021/07/22 01:44:39;;;;;;;17.80;11.85;;;;;;;13.36;100.00;96235.78;1026933;28;20035;-70
2021/07/22 01:45:10;;;;;;;16.23;11.38;;;;;;;13.42;100.00;96245.25;1024868;28;20027;-70
2021/07/22 01:45:40;;;;;;;20.98;12.38;;;;;;;13.38;100.00;96238.94;1031264;28;20563;-70
2021/07/22 01:46:11;;;;;;;16.73;11.30;;;;;;;13.39;100.00;96239.72;1026864;28;20270;-70
2021/07/22 01:46:41;;;;;;;19.35;12.30;;;;;;;13.39;100.00;96242.38;1027120;28;20027;-69
2021/07/22 01:47:12;;;;;;;16.80;12.10;;;;;;;13.38;100.00;96236.31;1031201;28;20109;-69
2021/07/22 01:47:42;;;;;;;18.33;10.90;;;;;;;13.38;100.00;96243.41;1027306;28;20042;-69
2021/07/22 01:48:13;;;;;;;19.38;11.52;;;;;;;13.37;100.00;96234.72;1027080;28;20574;-69
2021/07/22 01:48:43;;;;;;;26.05;12.68;;;;;;;13.37;100.00;96242.63;1026917;28;20027;-69
2021/07/22 01:49:14;;;;;;;20.13;11.57;;;;;;;13.37;100.00;96239.97;1027203;28;20030;-69
2021/07/22 01:49:44;;;;;;;18.40;11.40;;;;;;;13.39;100.00;96237.88;1031249;28;20038;-69
2021/07/22 01:50:14;;;;;;;17.48;11.90;;;;;;;13.36;100.00;96235.78;1035024;28;20037;-69
2021/07/22 01:50:45;;;;;;;18.77;11.98;;;;;;;13.36;100.00;96243.69;1035438;28;20621;-69
2021/07/22 01:51:15;;;;;;;19.23;11.40;;;;;;;13.35;100.00;96236.06;1035701;28;20391;-69
2021/07/22 01:51:46;;;;;;;19.23;11.00;;;;;;;13.35;100.00;96236.06;1034576;28;20030;-69
2021/07/22 01:52:16;;;;;;;20.67;11.88;;;;;;;13.28;100.00;96230.25;1034377;28;20029;-70
2021/07/22 01:52:47;;;;;;;17.02;10.77;;;;;;;13.38;100.00;96236.31;1027122;28;20516;-69
2021/07/22 01:53:17;;;;;;;20.27;11.55;;;;;;;13.37;100.00;96233.94;1027161;28;20053;-69
2021/07/22 01:53:47;;;;;;;22.73;11.82;;;;;;;13.35;100.00;96236.06;1026778;28;20042;-69
2021/07/22 01:54:18;;;;;;;18.38;11.45;;;;;;;13.34;100.00;96240.50;1023069;28;20038;-69
2021/07/22 01:54:48;;;;;;;23.05;11.70;;;;;;;13.36;100.00;96233.13;1027100;28;20023;-70
2021/07/22 01:55:19;;;;;;;18.58;11.45;;;;;;;13.35;100.00;96231.56;1027075;28;20023;-70
2021/07/22 01:55:49;;;;;;;17.42;12.25;;;;;;;13.35;100.00;96239.47;1027169;28;20065;-70
2021/07/22 01:56:20;;;;;;;18.83;11.82;;;;;;;13.34;100.00;96237.88;1027281;28;20034;-71
2021/07/22 01:56:50;;;;;;;19.88;11.98;;;;;;;13.34;100.00;96240.50;1030696;28;20026;-69
2021/07/22 01:57:21;;;;;;;19.27;11.50;;;;;;;13.32;100.00;96228.69;1023176;29;20030;-70
2021/07/22 01:57:54;;;;;;;17.38;12.00;;;;;;;13.36;100.00;96241.03;1019376;29;20031;-69
2021/07/22 01:58:24;;;;;;;18.00;11.85;;;;;;;13.33;100.00;96233.69;1022999;29;20067;-69
2021/07/22 01:58:54;;;;;;;17.30;12.40;;;;;;;13.34;100.00;96232.59;1023450;28;20270;-70
2021/07/22 01:59:25;;;;;;;19.63;13.02;;;;;;;13.32;100.00;96245.28;1031778;28;20091;-69
2021/07/22 02:00:04;;;;;;;16.95;11.63;;;;;;;13.28;100.00;96231.06;1023047;29;20022;-69
2021/07/22 02:00:35;;;;;;;17.45;11.73;;;;;;;13.27;100.00;96237.38;1018537;29;20032;-69
2021/07/22 02:01:05;;;;;;;18.13;11.68;;;;;;;13.27;100.00;96236.59;1019195;29;20027;-70
2021/07/22 02:01:36;;;;;;;14.82;11.38;;;;;;;13.26;100.00;96235.00;1020326;29;20093;-71
2021/07/22 02:02:07;;;;;;;18.08;12.27;;;;;;;13.21;100.00;96233.13;1024750;28;20031;-70
2021/07/22 02:02:38;;;;;;;19.27;11.93;;;;;;;13.26;100.00;96237.66;1031006;28;20159;-69
2021/07/22 02:03:08;;;;;;;18.35;12.23;;;;;;;13.26;100.00;96233.16;1027203;28;20278;-70
2021/07/22 02:03:39;;;;;;;20.95;12.52;;;;;;;13.26;100.00;96238.44;1023117;29;20126;-69
2021/07/22 02:04:09;;;;;;;19.33;12.77;;;;;;;13.26;100.00;96238.44;1019125;29;20031;-70
2021/07/22 02:04:40;;;;;;;18.67;12.38;;;;;;;13.25;100.00;96236.88;1019257;29;20032;-70
2021/07/22 02:05:10;;;;;;;19.83;12.05;;;;;;;13.25;100.00;96233.44;1019244;29;20059;-69
2021/07/22 02:05:41;;;;;;;20.20;12.70;;;;;;;13.22;100.00;96237.38;1022766;28;20415;-70
2021/07/22 02:06:12;;;;;;;24.30;12.68;;;;;;;13.24;100.00;96235.25;1027163;28;20027;-70
2021/07/22 02:06:42;;;;;;;25.80;13.43;;;;;;;13.25;100.00;96239.50;1027214;28;20037;-69
2021/07/22 02:07:13;;;;;;;29.23;13.43;;;;;;;13.26;100.00;96237.66;1026897;28;20031;-69
2021/07/22 02:07:43;;;;;;;23.33;11.93;;;;;;;13.26;100.00;96237.66;1027174;28;20110;-69
2021/07/22 02:08:13;;;;;;;23.00;13.98;;;;;;;13.26;100.00;96238.44;1027014;28;20035;-69
2021/07/22 02:08:44;;;;;;;18.50;12.68;;;;;;;13.25;100.00;96231.59;1023330;28;20035;-68
2021/07/22 02:09:14;;;;;;;18.65;12.20;;;;;;;13.26;100.00;96235.81;1026540;28;20031;-69
2021/07/22 02:09:45;;;;;;;18.58;12.77;;;;;;;13.27;100.00;96234.75;1031217;28;20046;-70
2021/07/22 02:10:15;;;;;;;19.88;12.30;;;;;;;13.27;100.00;96237.38;1023078;28;20031;-70
2021/07/22 02:10:45;;;;;;;22.10;12.15;;;;;;;13.29;100.00;96231.84;1026685;28;20034;-70
2021/07/22 02:11:16;;;;;;;21.80;12.20;;;;;;;13.29;100.00;96231.84;1022937;29;20027;-70
2021/07/22 02:11:46;;;;;;;22.27;12.70;;;;;;;13.27;100.00;96232.09;1022756;28;20038;-70
2021/07/22 02:12:17;;;;;;;20.55;11.88;;;;;;;13.26;100.00;96233.16;1026611;28;20023;-70
2021/07/22 02:12:47;;;;;;;18.50;13.30;;;;;;;13.26;100.00;96235.00;1023227;29;20035;-70
2021/07/22 02:13:18;;;;;;;17.60;12.20;;;;;;;13.24;100.00;96235.25;1022930;29;20095;-70
2021/07/22 02:13:48;;;;;;;16.13;11.93;;;;;;;13.24;100.00;96232.63;1019061;29;20040;-70
2021/07/22 02:14:19;;;;;;;18.92;12.32;;;;;;;13.19;100.00;96227.34;1018712;29;20058;-70
2021/07/22 02:14:52;;;;;;;19.48;12.82;;;;;;;13.23;100.00;96225.75;1023135;29;20116;-69
2021/07/22 02:15:22;;;;;;;26.20;13.02;;;;;;;13.21;100.00;96241.03;1018957;29;20036;-69
2021/07/22 02:15:53;;;;;;;19.17;13.02;;;;;;;13.20;100.00;96236.84;1019334;29;20275;-72
2021/07/22 02:16:23;;;;;;;20.10;12.85;;;;;;;13.18;100.00;96236.31;1023463;28;20030;-70
2021/07/22 02:16:53;;;;;;;20.02;13.50;;;;;;;13.15;100.00;96226.31;1019326;29;20027;-70
2021/07/22 02:17:24;;;;;;;18.27;13.07;;;;;;;13.17;100.00;96232.88;1023697;28;20039;-69
2021/07/22 02:17:54;;;;;;;18.38;12.68;;;;;;;13.17;100.00;96235.50;1022916;29;20034;-69
2021/07/22 02:18:25;;;;;;;21.42;12.75;;;;;;;13.18;100.00;96237.13;1023290;28;20452;-71
2021/07/22 02:18:55;;;;;;;17.35;12.07;;;;;;;13.19;100.00;96230.00;1031067;28;20401;-70
2021/07/22 02:19:26;;;;;;;17.98;11.60;;;;;;;13.18;100.00;96236.31;1026595;28;20034;-70
2021/07/22 02:19:56;;;;;;;17.42;12.50;;;;;;;13.16;100.00;96227.88;1027223;28;20031;-69
2021/07/22 02:20:27;;;;;;;16.67;11.93;;;;;;;13.21;100.00;96235.75;1023266;29;20043;-70
2021/07/22 02:20:57;;;;;;;18.15;11.95;;;;;;;13.21;100.00;96241.84;1022871;28;20090;-70